sensor_id;sensor_type;location;lat;lon;timestamp;temperature;humidity
14252;DHT22;7210;51.502;10.722;2023-06-22T00:01:17;18.90;99.90
14252;DHT22;7210;51.502;10.722;2023-06-22T00:03:45;18.80;99.90
14252;DHT22;7210;51.502;10.722;2023-06-22T00:06:21;18.80;99.90
14252;DHT22;7210;51.502;10.722;2023-06-22T00:09:08;18.90;99.90
14252;DHT22;7210;51.502;10.722;2023-06-22T00:11:50;18.80;99.90
14252;DHT22;7210;51.502;10.722;2023-06-22T00:14:20;18.80;99.90
14252;DHT22;7210;51.502;10.722;2023-06-22T00:16:47;18.70;99.90
14252;DHT22;7210;51.502;10.722;2023-06-22T00:19:15;18.60;99.90
14252;DHT22;7210;51.502;10.722;2023-06-22T00:21:48;18.60;99.90
14252;DHT22;7210;51.502;10.722;2023-06-22T00:24:18;18.50;99.90
14252;DHT22;7210;51.502;10.722;2023-06-22T00:26:47;18.50;99.90
14252;DHT22;7210;51.502;10.722;2023-06-22T00:29:21;18.50;99.90
14252;DHT22;7210;51.502;10.722;2023-06-22T00:31:49;18.40;99.90
14252;DHT22;7210;51.502;10.722;2023-06-22T00:34:16;18.50;99.90
14252;DHT22;7210;51.502;10.722;2023-06-22T00:36:44;18.40;99.90
14252;DHT22;7210;51.502;10.722;2023-06-22T00:39:13;18.40;99.90
14252;DHT22;7210;51.502;10.722;2023-06-22T00:42:14;18.40;99.90
14252;DHT22;7210;51.502;10.722;2023-06-22T00:44:50;18.30;99.90
14252;DHT22;7210;51.502;10.722;2023-06-22T00:47:20;18.20;99.90
14252;DHT22;7210;51.502;10.722;2023-06-22T00:49:50;18.20;99.90
14252;DHT22;7210;51.502;10.722;2023-06-22T00:52:19;18.30;99.90
14252;DHT22;7210;51.502;10.722;2023-06-22T00:54:53;18.30;99.90
14252;DHT22;7210;51.502;10.722;2023-06-22T00:57:22;18.40;99.90
14252;DHT22;7210;51.502;10.722;2023-06-22T00:59:55;18.20;99.90
14252;DHT22;7210;51.502;10.722;2023-06-22T01:02:22;18.20;99.90
14252;DHT22;7210;51.502;10.722;2023-06-22T01:04:51;18.10;99.90
14252;DHT22;7210;51.502;10.722;2023-06-22T01:07:25;18.00;99.90
14252;DHT22;7210;51.502;10.722;2023-06-22T01:10:07;18.00;99.90
14252;DHT22;7210;51.502;10.722;2023-06-22T01:12:40;17.90;99.90
14252;DHT22;7210;51.502;10.722;2023-06-22T01:15:21;17.80;99.90
14252;DHT22;7210;51.502;10.722;2023-06-22T01:17:56;17.70;99.90
14252;DHT22;7210;51.502;10.722;2023-06-22T01:20:25;17.80;99.90
14252;DHT22;7210;51.502;10.722;2023-06-22T01:23:07;17.90;99.90
14252;DHT22;7210;51.502;10.722;2023-06-22T01:25:48;17.90;99.90
14252;DHT22;7210;51.502;10.722;2023-06-22T01:28:43;17.80;99.90
14252;DHT22;7210;51.502;10.722;2023-06-22T01:31:15;17.80;99.90
14252;DHT22;7210;51.502;10.722;2023-06-22T01:33:48;17.80;99.90
14252;DHT22;7210;51.502;10.722;2023-06-22T01:36:18;17.90;99.90
14252;DHT22;7210;51.502;10.722;2023-06-22T01:38:47;17.90;99.90
14252;DHT22;7210;51.502;10.722;2023-06-22T01:41:44;17.90;99.90
14252;DHT22;7210;51.502;10.722;2023-06-22T01:44:16;17.80;99.90
14252;DHT22;7210;51.502;10.722;2023-06-22T01:46:51;17.80;99.90
14252;DHT22;7210;51.502;10.722;2023-06-22T01:49:19;17.70;99.90
14252;DHT22;7210;51.502;10.722;2023-06-22T01:51:47;17.70;99.90
14252;DHT22;7210;51.502;10.722;2023-06-22T01:54:14;17.70;99.90
14252;DHT22;7210;51.502;10.722;2023-06-22T01:56:41;17.60;99.90
14252;DHT22;7210;51.502;10.722;2023-06-22T01:59:11;17.60;99.90
14252;DHT22;7210;51.502;10.722;2023-06-22T02:01:49;17.60;99.90
14252;DHT22;7210;51.502;10.722;2023-06-22T02:04:24;17.60;99.90
14252;DHT22;7210;51.502;10.722;2023-06-22T02:09:46;17.50;99.90
14252;DHT22;7210;51.502;10.722;2023-06-22T02:12:23;17.50;99.90
14252;DHT22;7210;51.502;10.722;2023-06-22T02:14:54;17.50;99.90
14252;DHT22;7210;51.502;10.722;2023-06-22T02:20:14;17.40;99.90
14252;DHT22;7210;51.502;10.722;2023-06-22T02:22:41;17.40;99.90
14252;DHT22;7210;51.502;10.722;2023-06-22T02:25:10;17.40;99.90
14252;DHT22;7210;51.502;10.722;2023-06-22T02:27:37;17.40;99.90
14252;DHT22;7210;51.502;10.722;2023-06-22T02:30:08;17.40;99.90
14252;DHT22;7210;51.502;10.722;2023-06-22T02:32:38;17.40;99.90
14252;DHT22;7210;51.502;10.722;2023-06-22T02:35:08;17.30;99.90
14252;DHT22;7210;51.502;10.722;2023-06-22T02:37:36;17.30;99.90
14252;DHT22;7210;51.502;10.722;2023-06-22T02:40:08;17.30;99.90
14252;DHT22;7210;51.502;10.722;2023-06-22T02:42:36;17.20;99.90
14252;DHT22;7210;51.502;10.722;2023-06-22T02:45:04;17.20;99.90
14252;DHT22;7210;51.502;10.722;2023-06-22T02:47:33;17.20;99.90
14252;DHT22;7210;51.502;10.722;2023-06-22T02:50:00;17.20;99.90
14252;DHT22;7210;51.502;10.722;2023-06-22T02:52:31;17.10;99.90
14252;DHT22;7210;51.502;10.722;2023-06-22T02:54:59;17.10;99.90
14252;DHT22;7210;51.502;10.722;2023-06-22T02:57:28;17.10;99.90
14252;DHT22;7210;51.502;10.722;2023-06-22T02:59:56;17.10;99.90
14252;DHT22;7210;51.502;10.722;2023-06-22T03:02:23;17.20;99.90
14252;DHT22;7210;51.502;10.722;2023-06-22T03:04:53;17.20;99.90
14252;DHT22;7210;51.502;10.722;2023-06-22T03:07:20;17.30;99.90
14252;DHT22;7210;51.502;10.722;2023-06-22T03:09:50;17.40;99.90
14252;DHT22;7210;51.502;10.722;2023-06-22T03:12:17;17.40;99.90
14252;DHT22;7210;51.502;10.722;2023-06-22T03:14:51;17.30;99.90
14252;DHT22;7210;51.502;10.722;2023-06-22T03:17:18;17.40;99.90
14252;DHT22;7210;51.502;10.722;2023-06-22T03:19:45;17.40;99.90
14252;DHT22;7210;51.502;10.722;2023-06-22T03:22:14;17.40;99.90
14252;DHT22;7210;51.502;10.722;2023-06-22T03:24:41;17.40;99.90
14252;DHT22;7210;51.502;10.722;2023-06-22T03:27:08;17.50;99.90
14252;DHT22;7210;51.502;10.722;2023-06-22T03:29:35;17.50;99.90
14252;DHT22;7210;51.502;10.722;2023-06-22T03:32:03;17.50;99.90
14252;DHT22;7210;51.502;10.722;2023-06-22T03:34:31;17.50;99.90
14252;DHT22;7210;51.502;10.722;2023-06-22T03:37:00;17.60;99.90
14252;DHT22;7210;51.502;10.722;2023-06-22T03:39:28;17.70;99.90
14252;DHT22;7210;51.502;10.722;2023-06-22T03:41:57;17.80;99.90
14252;DHT22;7210;51.502;10.722;2023-06-22T03:44:25;17.90;99.90
14252;DHT22;7210;51.502;10.722;2023-06-22T03:46:52;17.80;99.90
14252;DHT22;7210;51.502;10.722;2023-06-22T03:49:19;17.90;99.90
14252;DHT22;7210;51.502;10.722;2023-06-22T03:51:46;17.90;99.90
14252;DHT22;7210;51.502;10.722;2023-06-22T03:54:13;18.00;99.90
14252;DHT22;7210;51.502;10.722;2023-06-22T03:56:42;17.90;99.90
14252;DHT22;7210;51.502;10.722;2023-06-22T03:59:09;18.00;99.90
14252;DHT22;7210;51.502;10.722;2023-06-22T04:01:36;18.10;99.90
14252;DHT22;7210;51.502;10.722;2023-06-22T04:04:04;18.20;99.90
14252;DHT22;7210;51.502;10.722;2023-06-22T04:06:35;18.30;99.90
14252;DHT22;7210;51.502;10.722;2023-06-22T04:09:02;18.40;99.90
14252;DHT22;7210;51.502;10.722;2023-06-22T04:11:29;18.40;1.40
14252;DHT22;7210;51.502;10.722;2023-06-22T04:13:58;18.50;1.00
14252;DHT22;7210;51.502;10.722;2023-06-22T04:16:25;18.50;1.00
14252;DHT22;7210;51.502;10.722;2023-06-22T04:18:53;18.50;1.00
14252;DHT22;7210;51.502;10.722;2023-06-22T04:21:20;18.50;1.00
14252;DHT22;7210;51.502;10.722;2023-06-22T04:23:47;18.60;1.00
14252;DHT22;7210;51.502;10.722;2023-06-22T04:26:14;18.60;99.90
14252;DHT22;7210;51.502;10.722;2023-06-22T04:28:41;18.70;99.90
14252;DHT22;7210;51.502;10.722;2023-06-22T04:31:10;18.70;1.00
14252;DHT22;7210;51.502;10.722;2023-06-22T04:33:37;18.80;1.00
14252;DHT22;7210;51.502;10.722;2023-06-22T04:36:06;18.90;1.00
14252;DHT22;7210;51.502;10.722;2023-06-22T04:38:33;19.00;1.00
14252;DHT22;7210;51.502;10.722;2023-06-22T04:41:00;19.20;1.00
14252;DHT22;7210;51.502;10.722;2023-06-22T04:43:28;19.40;1.00
14252;DHT22;7210;51.502;10.722;2023-06-22T04:45:56;19.60;1.00
14252;DHT22;7210;51.502;10.722;2023-06-22T04:48:30;19.80;1.00
14252;DHT22;7210;51.502;10.722;2023-06-22T04:50:59;19.90;1.00
14252;DHT22;7210;51.502;10.722;2023-06-22T04:53:29;20.10;1.00
14252;DHT22;7210;51.502;10.722;2023-06-22T04:55:56;20.10;1.00
14252;DHT22;7210;51.502;10.722;2023-06-22T04:58:23;20.20;1.00
14252;DHT22;7210;51.502;10.722;2023-06-22T05:00:54;20.20;1.00
14252;DHT22;7210;51.502;10.722;2023-06-22T05:03:24;20.20;1.00
14252;DHT22;7210;51.502;10.722;2023-06-22T05:05:54;20.20;1.00
14252;DHT22;7210;51.502;10.722;2023-06-22T05:08:21;20.30;1.00
14252;DHT22;7210;51.502;10.722;2023-06-22T05:10:52;20.40;1.00
14252;DHT22;7210;51.502;10.722;2023-06-22T05:13:19;20.40;1.00
14252;DHT22;7210;51.502;10.722;2023-06-22T05:15:47;20.40;1.00
14252;DHT22;7210;51.502;10.722;2023-06-22T05:18:14;20.50;1.00
14252;DHT22;7210;51.502;10.722;2023-06-22T05:20:41;20.50;1.00
14252;DHT22;7210;51.502;10.722;2023-06-22T05:23:10;20.60;1.00
14252;DHT22;7210;51.502;10.722;2023-06-22T05:25:37;20.60;1.00
14252;DHT22;7210;51.502;10.722;2023-06-22T05:28:04;20.50;1.00
14252;DHT22;7210;51.502;10.722;2023-06-22T05:30:37;20.50;1.00
14252;DHT22;7210;51.502;10.722;2023-06-22T05:33:04;20.50;1.00
14252;DHT22;7210;51.502;10.722;2023-06-22T05:35:31;20.40;1.00
14252;DHT22;7210;51.502;10.722;2023-06-22T05:37:59;20.40;1.00
14252;DHT22;7210;51.502;10.722;2023-06-22T05:40:27;20.40;1.00
14252;DHT22;7210;51.502;10.722;2023-06-22T05:42:54;20.30;1.00
14252;DHT22;7210;51.502;10.722;2023-06-22T05:45:22;20.30;1.00
14252;DHT22;7210;51.502;10.722;2023-06-22T05:47:52;20.30;1.00
14252;DHT22;7210;51.502;10.722;2023-06-22T05:50:20;20.30;1.00
14252;DHT22;7210;51.502;10.722;2023-06-22T05:52:50;20.30;1.00
14252;DHT22;7210;51.502;10.722;2023-06-22T05:55:18;20.40;1.00
14252;DHT22;7210;51.502;10.722;2023-06-22T05:57:47;20.40;1.00
14252;DHT22;7210;51.502;10.722;2023-06-22T06:00:15;20.40;1.00
14252;DHT22;7210;51.502;10.722;2023-06-22T06:02:46;20.50;1.00
14252;DHT22;7210;51.502;10.722;2023-06-22T06:05:14;20.70;1.00
14252;DHT22;7210;51.502;10.722;2023-06-22T06:07:47;20.90;1.00
14252;DHT22;7210;51.502;10.722;2023-06-22T06:10:17;21.00;1.00
14252;DHT22;7210;51.502;10.722;2023-06-22T06:12:44;21.20;1.00
14252;DHT22;7210;51.502;10.722;2023-06-22T06:15:13;21.50;1.00
14252;DHT22;7210;51.502;10.722;2023-06-22T06:17:45;21.60;1.00
14252;DHT22;7210;51.502;10.722;2023-06-22T06:20:13;21.80;1.00
14252;DHT22;7210;51.502;10.722;2023-06-22T06:22:40;22.10;1.00
14252;DHT22;7210;51.502;10.722;2023-06-22T06:25:09;22.20;1.00
14252;DHT22;7210;51.502;10.722;2023-06-22T06:27:42;22.40;1.00
14252;DHT22;7210;51.502;10.722;2023-06-22T06:30:14;22.60;1.00
14252;DHT22;7210;51.502;10.722;2023-06-22T06:32:42;22.70;1.00
14252;DHT22;7210;51.502;10.722;2023-06-22T06:35:12;22.80;1.00
14252;DHT22;7210;51.502;10.722;2023-06-22T06:37:42;23.10;1.00
14252;DHT22;7210;51.502;10.722;2023-06-22T06:40:12;23.10;1.00
14252;DHT22;7210;51.502;10.722;2023-06-22T06:42:42;23.20;1.00
14252;DHT22;7210;51.502;10.722;2023-06-22T06:45:11;23.40;1.00
14252;DHT22;7210;51.502;10.722;2023-06-22T06:47:41;23.40;1.00
14252;DHT22;7210;51.502;10.722;2023-06-22T06:50:09;23.50;1.00
14252;DHT22;7210;51.502;10.722;2023-06-22T06:52:38;23.40;1.00
14252;DHT22;7210;51.502;10.722;2023-06-22T06:55:06;23.40;1.00
14252;DHT22;7210;51.502;10.722;2023-06-22T06:57:37;23.60;1.00
14252;DHT22;7210;51.502;10.722;2023-06-22T07:00:06;23.70;1.00
14252;DHT22;7210;51.502;10.722;2023-06-22T07:02:38;23.70;1.00
14252;DHT22;7210;51.502;10.722;2023-06-22T07:05:07;23.60;1.00
14252;DHT22;7210;51.502;10.722;2023-06-22T07:07:34;23.60;1.00
14252;DHT22;7210;51.502;10.722;2023-06-22T07:10:02;23.70;1.00
14252;DHT22;7210;51.502;10.722;2023-06-22T07:12:29;23.70;1.00
14252;DHT22;7210;51.502;10.722;2023-06-22T07:15:02;23.60;1.00
14252;DHT22;7210;51.502;10.722;2023-06-22T07:17:29;23.40;1.00
14252;DHT22;7210;51.502;10.722;2023-06-22T07:19:58;23.20;1.00
14252;DHT22;7210;51.502;10.722;2023-06-22T07:22:25;23.10;1.00
14252;DHT22;7210;51.502;10.722;2023-06-22T07:24:52;23.20;1.00
14252;DHT22;7210;51.502;10.722;2023-06-22T07:27:20;23.40;1.00
14252;DHT22;7210;51.502;10.722;2023-06-22T07:29:47;23.50;1.00
14252;DHT22;7210;51.502;10.722;2023-06-22T07:32:14;23.70;1.00
14252;DHT22;7210;51.502;10.722;2023-06-22T07:34:41;23.80;1.00
14252;DHT22;7210;51.502;10.722;2023-06-22T07:37:10;23.90;1.00
14252;DHT22;7210;51.502;10.722;2023-06-22T07:39:37;24.00;1.00
14252;DHT22;7210;51.502;10.722;2023-06-22T07:42:05;24.20;1.00
14252;DHT22;7210;51.502;10.722;2023-06-22T07:44:35;24.20;1.00
14252;DHT22;7210;51.502;10.722;2023-06-22T07:47:02;24.30;1.00
14252;DHT22;7210;51.502;10.722;2023-06-22T07:49:30;24.30;1.00
14252;DHT22;7210;51.502;10.722;2023-06-22T07:51:57;24.50;1.00
14252;DHT22;7210;51.502;10.722;2023-06-22T07:54:26;24.60;1.00
14252;DHT22;7210;51.502;10.722;2023-06-22T07:56:53;24.80;1.00
14252;DHT22;7210;51.502;10.722;2023-06-22T07:59:23;24.90;1.00
14252;DHT22;7210;51.502;10.722;2023-06-22T08:01:50;25.00;1.00
14252;DHT22;7210;51.502;10.722;2023-06-22T08:04:17;25.10;1.00
14252;DHT22;7210;51.502;10.722;2023-06-22T08:06:47;25.10;1.00
14252;DHT22;7210;51.502;10.722;2023-06-22T08:09:14;25.00;1.00
14252;DHT22;7210;51.502;10.722;2023-06-22T08:11:49;25.20;1.00
14252;DHT22;7210;51.502;10.722;2023-06-22T08:14:16;25.20;1.00
14252;DHT22;7210;51.502;10.722;2023-06-22T08:16:43;25.20;1.00
14252;DHT22;7210;51.502;10.722;2023-06-22T08:19:11;25.30;1.00
14252;DHT22;7210;51.502;10.722;2023-06-22T08:21:38;25.30;1.00
14252;DHT22;7210;51.502;10.722;2023-06-22T08:24:06;25.30;1.00
14252;DHT22;7210;51.502;10.722;2023-06-22T08:26:34;25.30;1.00
14252;DHT22;7210;51.502;10.722;2023-06-22T08:29:04;25.40;1.00
14252;DHT22;7210;51.502;10.722;2023-06-22T08:31:32;25.50;1.00
14252;DHT22;7210;51.502;10.722;2023-06-22T08:34:00;25.50;1.00
14252;DHT22;7210;51.502;10.722;2023-06-22T08:36:27;25.70;1.00
14252;DHT22;7210;51.502;10.722;2023-06-22T08:38:58;25.90;1.00
14252;DHT22;7210;51.502;10.722;2023-06-22T08:41:28;25.90;1.00
14252;DHT22;7210;51.502;10.722;2023-06-22T08:43:55;25.90;1.00
14252;DHT22;7210;51.502;10.722;2023-06-22T08:46:24;25.80;1.00
14252;DHT22;7210;51.502;10.722;2023-06-22T08:48:56;25.80;1.00
14252;DHT22;7210;51.502;10.722;2023-06-22T08:51:24;25.90;1.00
14252;DHT22;7210;51.502;10.722;2023-06-22T08:53:51;25.90;1.00
14252;DHT22;7210;51.502;10.722;2023-06-22T08:56:18;25.90;1.00
14252;DHT22;7210;51.502;10.722;2023-06-22T08:58:45;26.00;1.00
14252;DHT22;7210;51.502;10.722;2023-06-22T09:01:13;26.00;1.00
14252;DHT22;7210;51.502;10.722;2023-06-22T09:03:42;26.00;1.00
14252;DHT22;7210;51.502;10.722;2023-06-22T09:06:09;26.00;1.00
14252;DHT22;7210;51.502;10.722;2023-06-22T09:08:37;26.10;1.00
14252;DHT22;7210;51.502;10.722;2023-06-22T09:11:05;26.10;1.00
14252;DHT22;7210;51.502;10.722;2023-06-22T09:13:32;26.30;1.00
14252;DHT22;7210;51.502;10.722;2023-06-22T09:16:00;26.40;1.00
14252;DHT22;7210;51.502;10.722;2023-06-22T09:18:27;26.50;1.00
14252;DHT22;7210;51.502;10.722;2023-06-22T09:20:56;26.70;1.00
14252;DHT22;7210;51.502;10.722;2023-06-22T09:23:23;26.80;1.00
14252;DHT22;7210;51.502;10.722;2023-06-22T09:25:50;27.10;1.00
14252;DHT22;7210;51.502;10.722;2023-06-22T09:28:17;27.20;1.00
14252;DHT22;7210;51.502;10.722;2023-06-22T09:30:45;27.40;1.00
14252;DHT22;7210;51.502;10.722;2023-06-22T09:33:12;27.40;1.00
14252;DHT22;7210;51.502;10.722;2023-06-22T09:35:39;27.50;1.00
14252;DHT22;7210;51.502;10.722;2023-06-22T09:38:08;27.60;1.00
14252;DHT22;7210;51.502;10.722;2023-06-22T09:40:35;27.80;1.00
14252;DHT22;7210;51.502;10.722;2023-06-22T09:43:05;27.90;1.00
14252;DHT22;7210;51.502;10.722;2023-06-22T09:45:32;28.10;1.00
14252;DHT22;7210;51.502;10.722;2023-06-22T09:47:59;28.20;1.00
14252;DHT22;7210;51.502;10.722;2023-06-22T09:50:27;28.40;1.00
14252;DHT22;7210;51.502;10.722;2023-06-22T09:52:54;28.40;1.00
14252;DHT22;7210;51.502;10.722;2023-06-22T09:55:24;28.50;1.00
14252;DHT22;7210;51.502;10.722;2023-06-22T09:57:51;28.60;1.00
14252;DHT22;7210;51.502;10.722;2023-06-22T10:00:20;28.70;1.30
14252;DHT22;7210;51.502;10.722;2023-06-22T10:02:47;28.80;1.10
14252;DHT22;7210;51.502;10.722;2023-06-22T10:05:16;28.70;3.10
14252;DHT22;7210;51.502;10.722;2023-06-22T10:07:43;28.80;2.90
14252;DHT22;7210;51.502;10.722;2023-06-22T10:10:11;28.90;6.40
14252;DHT22;7210;51.502;10.722;2023-06-22T10:12:43;29.00;7.80
14252;DHT22;7210;51.502;10.722;2023-06-22T10:15:12;29.00;6.00
14252;DHT22;7210;51.502;10.722;2023-06-22T10:17:41;29.00;8.30
14252;DHT22;7210;51.502;10.722;2023-06-22T10:20:13;29.20;9.60
14252;DHT22;7210;51.502;10.722;2023-06-22T10:22:44;29.30;10.90
14252;DHT22;7210;51.502;10.722;2023-06-22T10:25:12;29.60;12.00
14252;DHT22;7210;51.502;10.722;2023-06-22T10:27:41;29.80;18.00
14252;DHT22;7210;51.502;10.722;2023-06-22T10:30:10;29.90;18.20
14252;DHT22;7210;51.502;10.722;2023-06-22T10:32:39;30.10;21.60
14252;DHT22;7210;51.502;10.722;2023-06-22T10:35:08;30.30;23.70
14252;DHT22;7210;51.502;10.722;2023-06-22T10:37:39;30.30;24.40
14252;DHT22;7210;51.502;10.722;2023-06-22T10:40:09;30.30;21.30
14252;DHT22;7210;51.502;10.722;2023-06-22T10:42:37;30.40;26.80
14252;DHT22;7210;51.502;10.722;2023-06-22T10:45:07;30.60;30.50
14252;DHT22;7210;51.502;10.722;2023-06-22T10:47:35;30.50;31.00
14252;DHT22;7210;51.502;10.722;2023-06-22T10:50:03;30.80;32.80
14252;DHT22;7210;51.502;10.722;2023-06-22T10:52:31;30.80;32.70
14252;DHT22;7210;51.502;10.722;2023-06-22T10:54:58;30.60;31.60
14252;DHT22;7210;51.502;10.722;2023-06-22T10:57:26;30.60;32.70
14252;DHT22;7210;51.502;10.722;2023-06-22T10:59:53;30.50;32.50
14252;DHT22;7210;51.502;10.722;2023-06-22T11:02:21;30.50;33.80
14252;DHT22;7210;51.502;10.722;2023-06-22T11:04:49;30.60;34.90
14252;DHT22;7210;51.502;10.722;2023-06-22T11:07:17;30.60;34.80
14252;DHT22;7210;51.502;10.722;2023-06-22T11:09:44;30.70;35.20
14252;DHT22;7210;51.502;10.722;2023-06-22T11:12:11;30.70;36.00
14252;DHT22;7210;51.502;10.722;2023-06-22T11:14:39;30.80;36.90
14252;DHT22;7210;51.502;10.722;2023-06-22T11:17:06;31.00;38.60
14252;DHT22;7210;51.502;10.722;2023-06-22T11:19:34;31.00;44.60
14252;DHT22;7210;51.502;10.722;2023-06-22T11:22:02;31.10;45.50
14252;DHT22;7210;51.502;10.722;2023-06-22T11:24:29;31.00;44.50
14252;DHT22;7210;51.502;10.722;2023-06-22T11:26:56;31.00;46.20
14252;DHT22;7210;51.502;10.722;2023-06-22T11:29:23;31.20;48.70
14252;DHT22;7210;51.502;10.722;2023-06-22T11:31:53;31.30;46.90
14252;DHT22;7210;51.502;10.722;2023-06-22T11:34:24;31.30;51.20
14252;DHT22;7210;51.502;10.722;2023-06-22T11:37:02;31.40;49.80
14252;DHT22;7210;51.502;10.722;2023-06-22T11:39:31;31.30;50.80
14252;DHT22;7210;51.502;10.722;2023-06-22T11:41:59;31.40;49.60
14252;DHT22;7210;51.502;10.722;2023-06-22T11:44:27;31.70;53.80
14252;DHT22;7210;51.502;10.722;2023-06-22T11:46:55;31.70;56.50
14252;DHT22;7210;51.502;10.722;2023-06-22T11:49:22;31.70;56.30
14252;DHT22;7210;51.502;10.722;2023-06-22T11:51:49;32.00;60.00
14252;DHT22;7210;51.502;10.722;2023-06-22T11:54:17;31.90;63.10
14252;DHT22;7210;51.502;10.722;2023-06-22T11:56:45;32.00;62.70
14252;DHT22;7210;51.502;10.722;2023-06-22T11:59:12;31.90;61.30
14252;DHT22;7210;51.502;10.722;2023-06-22T12:01:39;32.00;66.20
14252;DHT22;7210;51.502;10.722;2023-06-22T12:04:11;32.00;66.20
14252;DHT22;7210;51.502;10.722;2023-06-22T12:06:41;31.90;65.60
14252;DHT22;7210;51.502;10.722;2023-06-22T12:09:09;31.80;64.90
14252;DHT22;7210;51.502;10.722;2023-06-22T12:11:37;31.80;64.40
14252;DHT22;7210;51.502;10.722;2023-06-22T12:14:04;31.90;65.90
14252;DHT22;7210;51.502;10.722;2023-06-22T12:16:32;31.90;65.90
14252;DHT22;7210;51.502;10.722;2023-06-22T12:18:59;32.00;70.00
14252;DHT22;7210;51.502;10.722;2023-06-22T12:21:26;32.00;69.50
14252;DHT22;7210;51.502;10.722;2023-06-22T12:23:54;31.80;66.30
14252;DHT22;7210;51.502;10.722;2023-06-22T12:26:23;32.00;68.50
14252;DHT22;7210;51.502;10.722;2023-06-22T12:28:51;32.10;74.70
14252;DHT22;7210;51.502;10.722;2023-06-22T12:31:19;32.20;74.10
14252;DHT22;7210;51.502;10.722;2023-06-22T12:33:46;32.40;76.10
14252;DHT22;7210;51.502;10.722;2023-06-22T12:36:17;32.40;75.90
14252;DHT22;7210;51.502;10.722;2023-06-22T12:38:44;32.40;76.00
14252;DHT22;7210;51.502;10.722;2023-06-22T12:41:11;32.60;81.10
14252;DHT22;7210;51.502;10.722;2023-06-22T12:43:39;32.70;83.80
14252;DHT22;7210;51.502;10.722;2023-06-22T12:46:08;32.90;85.40
14252;DHT22;7210;51.502;10.722;2023-06-22T12:48:35;32.80;88.00
14252;DHT22;7210;51.502;10.722;2023-06-22T12:51:07;32.90;86.70
14252;DHT22;7210;51.502;10.722;2023-06-22T12:53:34;32.70;87.10
14252;DHT22;7210;51.502;10.722;2023-06-22T12:56:02;32.40;84.10
14252;DHT22;7210;51.502;10.722;2023-06-22T12:58:29;32.10;79.60
14252;DHT22;7210;51.502;10.722;2023-06-22T13:00:56;32.20;81.50
14252;DHT22;7210;51.502;10.722;2023-06-22T13:03:25;32.50;86.90
14252;DHT22;7210;51.502;10.722;2023-06-22T13:05:53;32.50;87.70
14252;DHT22;7210;51.502;10.722;2023-06-22T13:08:21;32.60;88.80
14252;DHT22;7210;51.502;10.722;2023-06-22T13:10:48;32.90;91.90
14252;DHT22;7210;51.502;10.722;2023-06-22T13:13:15;32.80;95.20
14252;DHT22;7210;51.502;10.722;2023-06-22T13:15:42;32.60;92.00
14252;DHT22;7210;51.502;10.722;2023-06-22T13:18:10;32.60;87.60
14252;DHT22;7210;51.502;10.722;2023-06-22T13:20:39;32.50;92.00
14252;DHT22;7210;51.502;10.722;2023-06-22T13:23:06;32.60;93.50
14252;DHT22;7210;51.502;10.722;2023-06-22T13:25:35;32.60;94.10
14252;DHT22;7210;51.502;10.722;2023-06-22T13:28:05;32.70;95.10
14252;DHT22;7210;51.502;10.722;2023-06-22T13:30:35;32.60;93.50
14252;DHT22;7210;51.502;10.722;2023-06-22T13:33:02;32.70;96.20
14252;DHT22;7210;51.502;10.722;2023-06-22T13:35:29;33.20;99.90
14252;DHT22;7210;51.502;10.722;2023-06-22T13:37:58;33.20;99.90
14252;DHT22;7210;51.502;10.722;2023-06-22T13:40:25;33.20;99.90
14252;DHT22;7210;51.502;10.722;2023-06-22T13:42:52;33.30;99.90
14252;DHT22;7210;51.502;10.722;2023-06-22T13:45:19;33.20;99.90
14252;DHT22;7210;51.502;10.722;2023-06-22T13:47:46;33.10;99.90
14252;DHT22;7210;51.502;10.722;2023-06-22T13:50:14;32.90;99.90
14252;DHT22;7210;51.502;10.722;2023-06-22T13:52:41;32.80;99.90
14252;DHT22;7210;51.502;10.722;2023-06-22T13:55:10;33.00;99.90
14252;DHT22;7210;51.502;10.722;2023-06-22T13:57:40;33.40;99.90
14252;DHT22;7210;51.502;10.722;2023-06-22T14:00:08;33.60;99.90
14252;DHT22;7210;51.502;10.722;2023-06-22T14:02:37;33.50;99.90
14252;DHT22;7210;51.502;10.722;2023-06-22T14:05:05;33.20;99.90
14252;DHT22;7210;51.502;10.722;2023-06-22T14:07:33;33.10;99.90
14252;DHT22;7210;51.502;10.722;2023-06-22T14:10:04;33.20;99.90
14252;DHT22;7210;51.502;10.722;2023-06-22T14:12:41;33.60;99.90
14252;DHT22;7210;51.502;10.722;2023-06-22T14:15:16;33.80;99.90
14252;DHT22;7210;51.502;10.722;2023-06-22T14:17:43;33.80;99.90
14252;DHT22;7210;51.502;10.722;2023-06-22T14:20:12;33.60;99.90
14252;DHT22;7210;51.502;10.722;2023-06-22T14:22:41;33.10;99.90
14252;DHT22;7210;51.502;10.722;2023-06-22T14:25:10;32.80;99.90
14252;DHT22;7210;51.502;10.722;2023-06-22T14:27:42;32.50;99.90
14252;DHT22;7210;51.502;10.722;2023-06-22T14:30:11;32.30;99.90
14252;DHT22;7210;51.502;10.722;2023-06-22T14:32:39;32.10;99.90
14252;DHT22;7210;51.502;10.722;2023-06-22T14:35:12;32.00;99.80
14252;DHT22;7210;51.502;10.722;2023-06-22T14:37:42;32.00;96.50
14252;DHT22;7210;51.502;10.722;2023-06-22T14:40:12;32.10;99.90
14252;DHT22;7210;51.502;10.722;2023-06-22T14:42:40;32.30;99.90
14252;DHT22;7210;51.502;10.722;2023-06-22T14:45:08;32.30;99.90
14252;DHT22;7210;51.502;10.722;2023-06-22T14:47:35;32.10;99.90
14252;DHT22;7210;51.502;10.722;2023-06-22T14:50:05;32.00;99.90
14252;DHT22;7210;51.502;10.722;2023-06-22T14:52:35;31.80;99.20
14252;DHT22;7210;51.502;10.722;2023-06-22T14:55:06;31.60;97.20
14252;DHT22;7210;51.502;10.722;2023-06-22T14:57:33;31.20;93.00
14252;DHT22;7210;51.502;10.722;2023-06-22T15:00:03;31.00;88.00
14252;DHT22;7210;51.502;10.722;2023-06-22T15:02:32;30.80;86.30
14252;DHT22;7210;51.502;10.722;2023-06-22T15:04:59;30.80;82.50
14252;DHT22;7210;51.502;10.722;2023-06-22T15:07:26;31.00;88.70
14252;DHT22;7210;51.502;10.722;2023-06-22T15:09:54;30.80;87.00
14252;DHT22;7210;51.502;10.722;2023-06-22T15:12:22;30.80;85.00
14252;DHT22;7210;51.502;10.722;2023-06-22T15:14:49;30.60;83.20
14252;DHT22;7210;51.502;10.722;2023-06-22T15:17:17;30.50;81.90
14252;DHT22;7210;51.502;10.722;2023-06-22T15:19:53;30.40;82.60
14252;DHT22;7210;51.502;10.722;2023-06-22T15:22:20;30.20;78.70
14252;DHT22;7210;51.502;10.722;2023-06-22T15:24:53;30.10;78.20
14252;DHT22;7210;51.502;10.722;2023-06-22T15:27:23;30.20;77.40
14252;DHT22;7210;51.502;10.722;2023-06-22T15:29:50;30.20;76.90
14252;DHT22;7210;51.502;10.722;2023-06-22T15:32:19;30.00;75.50
14252;DHT22;7210;51.502;10.722;2023-06-22T15:34:47;29.70;72.80
14252;DHT22;7210;51.502;10.722;2023-06-22T15:37:15;29.60;71.90
14252;DHT22;7210;51.502;10.722;2023-06-22T15:39:43;29.50;69.20
14252;DHT22;7210;51.502;10.722;2023-06-22T15:42:11;29.40;66.10
14252;DHT22;7210;51.502;10.722;2023-06-22T15:44:38;29.30;67.30
14252;DHT22;7210;51.502;10.722;2023-06-22T15:47:06;29.10;61.90
14252;DHT22;7210;51.502;10.722;2023-06-22T15:49:34;29.00;59.10
14252;DHT22;7210;51.502;10.722;2023-06-22T15:52:02;28.90;58.10
14252;DHT22;7210;51.502;10.722;2023-06-22T15:54:29;28.80;56.00